createdAt,value
2019-01-14T00:00:53.051Z,38.4
2019-01-14T00:02:05.242Z,38.3
2019-01-14T00:03:17.442Z,38.3
2019-01-14T00:04:29.639Z,38.2
2019-01-14T00:05:41.825Z,38.3
2019-01-14T00:06:54.025Z,38
2019-01-14T00:08:06.214Z,38.1
2019-01-14T00:09:18.415Z,38.1
2019-01-14T00:10:30.060Z,37.8
2019-01-14T00:11:42.806Z,37.9
2019-01-14T00:12:55.007Z,37.9
2019-01-14T00:14:07.194Z,37.8
2019-01-14T00:15:19.390Z,37.6
2019-01-14T00:16:31.584Z,37.7
2019-01-14T00:17:43.785Z,37.7
2019-01-14T00:18:55.977Z,37.5
2019-01-14T00:20:08.017Z,37.5
2019-01-14T00:21:20.003Z,37.5
2019-01-14T00:22:32.562Z,37.5
2019-01-14T00:23:44.759Z,37.5
2019-01-14T00:24:56.960Z,37.6
2019-01-14T00:26:09.014Z,37.8
2019-01-14T00:27:21.350Z,37.7
2019-01-14T00:28:33.544Z,37.4
2019-01-14T00:29:45.740Z,37.3
2019-01-14T00:30:57.929Z,37.4
2019-01-14T00:32:10.131Z,37.4
2019-01-14T00:33:22.319Z,37.4
2019-01-14T00:34:34.051Z,37.3
2019-01-14T00:35:46.712Z,37.2
2019-01-14T00:36:58.907Z,37
2019-01-14T00:38:11.102Z,37.2
2019-01-14T00:39:23.303Z,37.2
2019-01-14T00:40:35.497Z,37.1
2019-01-14T00:41:47.686Z,36.9
2019-01-14T00:42:59.878Z,37
2019-01-14T00:44:12.075Z,37.1
2019-01-14T00:45:24.277Z,37
2019-01-14T00:46:36.471Z,36.8
2019-01-14T00:47:48.662Z,36.6
2019-01-14T00:49:00.858Z,36.6
2019-01-14T00:50:13.051Z,36.7
2019-01-14T00:51:25.025Z,36.5
2019-01-14T00:52:37.000Z,36.7
2019-01-14T00:53:49.646Z,36.5
2019-01-14T00:55:01.837Z,36.5
2019-01-14T00:56:14.000Z,36.4
2019-01-14T00:57:26.226Z,36.7
2019-01-14T00:58:38.426Z,36.5
2019-01-14T00:59:50.619Z,36.4
2019-01-14T01:01:02.081Z,36.2
2019-01-14T01:02:15.012Z,36.2
2019-01-14T01:03:27.203Z,36.3
2019-01-14T01:04:39.399Z,36.5
2019-01-14T01:05:51.597Z,36.3
2019-01-14T01:07:03.784Z,36.3
2019-01-14T01:09:28.183Z,36.3
2019-01-14T01:10:40.377Z,36.2
2019-01-14T01:11:52.572Z,36.3
2019-01-14T01:13:04.761Z,36.2
2019-01-14T01:14:16.971Z,36.2
2019-01-14T01:15:29.161Z,36.2
2019-01-14T01:16:41.352Z,35.9
2019-01-14T01:17:53.000Z,36
2019-01-14T01:19:05.745Z,36
2019-01-14T01:20:17.935Z,35.6
2019-01-14T01:21:30.141Z,35.8
2019-01-14T01:22:42.327Z,35.7
2019-01-14T01:23:54.524Z,35.6
2019-01-14T01:25:06.720Z,35.6
2019-01-14T01:26:18.918Z,35.6
2019-01-14T01:27:31.020Z,35.6
2019-01-14T01:28:43.310Z,35.6
2019-01-14T01:29:55.497Z,35.6
2019-01-14T01:31:07.698Z,35.5
2019-01-14T01:32:19.892Z,35.5
2019-01-14T01:33:32.008Z,35.4
2019-01-14T01:35:56.470Z,35.6
2019-01-14T01:37:08.672Z,35.6
2019-01-14T01:38:20.862Z,35.4
2019-01-14T01:39:33.061Z,35.5
2019-01-14T01:40:45.270Z,35.4
2019-01-14T01:41:57.458Z,35.3
2019-01-14T01:44:21.846Z,35.4
2019-01-14T01:45:34.044Z,35.4
2019-01-14T01:46:46.000Z,35.4
2019-01-14T01:47:58.448Z,35.4
2019-01-14T01:50:22.816Z,35.3
2019-01-14T01:51:35.017Z,35.4
2019-01-14T01:52:47.021Z,35.2
2019-01-14T01:53:59.401Z,35.3
2019-01-14T01:55:11.603Z,35
2019-01-14T01:57:35.989Z,35.2
2019-01-14T01:58:48.184Z,35.1
2019-01-14T02:00:00.386Z,35.4
2019-01-14T02:01:12.000Z,35.2
2019-01-14T02:02:24.762Z,35.3
2019-01-14T02:03:36.096Z,35.3
2019-01-14T02:04:49.156Z,35.3
2019-01-14T02:06:01.035Z,35.3
2019-01-14T02:07:13.538Z,35.4
2019-01-14T02:08:25.729Z,35.4
2019-01-14T02:09:37.930Z,35.4
2019-01-14T02:10:50.123Z,35.3
2019-01-14T02:12:02.380Z,35.1
2019-01-14T02:13:14.524Z,35.1
2019-01-14T02:14:26.705Z,35
2019-01-14T02:15:38.894Z,34.9
2019-01-14T02:16:51.086Z,35.1
2019-01-14T02:20:27.667Z,35
2019-01-14T02:21:39.868Z,35
2019-01-14T02:22:52.000Z,35
2019-01-14T02:24:04.254Z,35.1
2019-01-14T02:25:16.438Z,35
2019-01-14T02:26:28.638Z,35
2019-01-14T02:27:40.829Z,35
2019-01-14T02:28:53.021Z,35
2019-01-14T02:30:05.000Z,34.9
2019-01-14T02:31:17.409Z,34.9
2019-01-14T02:32:29.603Z,34.8
2019-01-14T02:33:41.799Z,34.8
2019-01-14T02:34:53.990Z,34.9
2019-01-14T02:36:06.188Z,34.8
2019-01-14T02:37:18.000Z,34.8
2019-01-14T02:38:30.575Z,34.7
2019-01-14T02:39:42.764Z,34.7
2019-01-14T02:40:54.960Z,34.7
2019-01-14T02:42:07.000Z,34.7
2019-01-14T02:43:19.353Z,34.6
2019-01-14T02:44:31.000Z,34.7
2019-01-14T02:45:43.732Z,34.5
2019-01-14T02:46:55.922Z,34.4
2019-01-14T02:48:08.121Z,34.6
2019-01-14T02:49:20.317Z,34.6
2019-01-14T02:50:32.507Z,34.7
2019-01-14T02:51:44.070Z,34.6
2019-01-14T02:52:56.892Z,34.5
2019-01-14T02:54:09.090Z,34.3
2019-01-14T02:55:21.277Z,34.2
2019-01-14T02:56:33.476Z,34.2
2019-01-14T02:57:45.663Z,34.3
2019-01-14T02:58:57.860Z,34.1
2019-01-14T03:00:10.053Z,34.2
2019-01-14T03:01:22.248Z,34.4
2019-01-14T03:02:34.450Z,34.2
2019-01-14T03:03:46.006Z,34.3
2019-01-14T03:04:58.828Z,34.4
2019-01-14T03:06:11.000Z,34.3
2019-01-14T03:07:23.219Z,34.2
2019-01-14T03:08:35.411Z,34.3
2019-01-14T03:09:47.600Z,34.3
2019-01-14T03:10:59.808Z,34.3
2019-01-14T03:12:11.994Z,34.2
2019-01-14T03:13:24.191Z,34.4
2019-01-14T03:14:36.381Z,34.4
2019-01-14T03:17:00.000Z,34.4
2019-01-14T03:18:12.960Z,34.1
2019-01-14T03:19:25.015Z,34.1
2019-01-14T03:20:37.346Z,34.1
2019-01-14T03:21:49.054Z,34.1
2019-01-14T03:23:01.732Z,34
2019-01-14T03:24:13.931Z,34.1
2019-01-14T03:25:26.123Z,34
2019-01-14T03:26:38.316Z,33.7
2019-01-14T03:27:50.509Z,33.8
2019-01-14T03:29:02.000Z,33.9
2019-01-14T03:30:14.906Z,33.6
2019-01-14T03:31:27.009Z,33.5
2019-01-14T03:32:39.281Z,33.5
2019-01-14T03:33:51.476Z,33.6
2019-01-14T03:35:03.672Z,33.7
2019-01-14T03:36:15.863Z,33.7
2019-01-14T03:37:28.061Z,33.6
2019-01-14T03:38:40.000Z,33.7
2019-01-14T03:39:52.447Z,33.4
2019-01-14T03:41:04.000Z,33.5
2019-01-14T03:42:16.835Z,33.6
2019-01-14T03:43:29.034Z,33.6
2019-01-14T03:44:41.222Z,33.4
2019-01-14T03:45:53.040Z,33.5
2019-01-14T03:47:05.629Z,33.1
2019-01-14T03:48:17.805Z,33
2019-01-14T03:49:29.000Z,33.1
2019-01-14T03:50:42.183Z,33.3
2019-01-14T03:51:54.388Z,33
2019-01-14T03:53:06.567Z,33
2019-01-14T03:54:18.768Z,33.2
2019-01-14T03:55:30.965Z,33.3
2019-01-14T03:56:43.000Z,33.2
2019-01-14T03:57:55.349Z,33.1
2019-01-14T03:59:07.537Z,33.1
2019-01-14T04:00:19.733Z,33.1
2019-01-14T04:02:44.126Z,32.9
2019-01-14T04:03:56.314Z,32.8
2019-01-14T04:05:08.052Z,33
2019-01-14T04:06:20.698Z,33
2019-01-14T04:07:32.891Z,32.5
2019-01-14T04:08:45.009Z,33
2019-01-14T04:09:57.297Z,32.8
2019-01-14T04:11:09.000Z,32.9
2019-01-14T04:12:21.672Z,32.7
2019-01-14T04:13:33.865Z,32.3
2019-01-14T04:14:46.063Z,32.3
2019-01-14T04:15:58.267Z,32.1
2019-01-14T04:17:10.044Z,32.2
2019-01-14T04:18:22.635Z,32.2
2019-01-14T04:20:47.034Z,32.1
2019-01-14T04:21:59.217Z,32
2019-01-14T04:23:11.410Z,32.2
2019-01-14T04:24:23.606Z,32
2019-01-14T04:25:35.804Z,31.9
2019-01-14T04:26:47.999Z,31.6
2019-01-14T04:28:00.194Z,31.7
2019-01-14T04:29:12.381Z,31.9
2019-01-14T04:30:24.588Z,32
2019-01-14T04:31:36.773Z,31.7
2019-01-14T04:32:48.959Z,31.1
2019-01-14T04:34:01.157Z,31.4
2019-01-14T04:35:13.344Z,31.1
2019-01-14T04:36:25.546Z,31.5
2019-01-14T04:37:37.742Z,31.1
2019-01-14T04:38:49.922Z,30.9
2019-01-14T04:40:02.012Z,30.9
2019-01-14T04:41:14.311Z,30.9
2019-01-14T04:42:26.509Z,30.9
2019-01-14T04:44:50.089Z,30.9
2019-01-14T04:46:03.091Z,31.1
2019-01-14T04:47:15.290Z,30.9
2019-01-14T04:48:27.487Z,30.9
2019-01-14T04:49:39.669Z,30.9
2019-01-14T04:50:51.859Z,30.8
2019-01-14T04:52:04.058Z,30.9
2019-01-14T04:53:16.000Z,30.6
2019-01-14T04:54:28.000Z,30.6
2019-01-14T04:55:40.643Z,30.6
2019-01-14T04:56:52.832Z,30.3
2019-01-14T04:58:05.032Z,30.6
2019-01-14T04:59:17.221Z,30.6
2019-01-14T05:00:29.410Z,30.3
2019-01-14T05:01:41.000Z,30.4
2019-01-14T05:02:53.800Z,30.4
2019-01-14T05:04:05.999Z,30.6
2019-01-14T05:05:18.188Z,30.4
2019-01-14T05:06:30.378Z,30.4
2019-01-14T05:07:42.571Z,30.1
2019-01-14T05:08:54.000Z,30.4
2019-01-14T05:10:06.957Z,30.1
2019-01-14T05:11:19.157Z,30.4
2019-01-14T05:12:31.352Z,30.4
2019-01-14T05:13:43.546Z,30
2019-01-14T05:14:55.738Z,29.9
2019-01-14T05:16:07.000Z,29.7
2019-01-14T05:17:20.000Z,29.5
2019-01-14T05:18:32.321Z,29.2
2019-01-14T05:19:44.511Z,29.3
2019-01-14T05:20:56.700Z,29.3
2019-01-14T05:22:08.901Z,29.2
2019-01-14T05:23:21.000Z,29.1
2019-01-14T05:24:33.291Z,29.2
2019-01-14T05:25:45.475Z,29.3
2019-01-14T05:26:57.672Z,29.8
2019-01-14T05:28:09.871Z,29.7
2019-01-14T05:29:22.057Z,29.7
2019-01-14T05:31:46.445Z,29.1
2019-01-14T05:32:58.659Z,29
2019-01-14T05:34:10.083Z,28.9
2019-01-14T05:35:23.023Z,29
2019-01-14T05:36:35.221Z,29.1
2019-01-14T05:37:47.421Z,28.9
2019-01-14T05:38:59.603Z,29.1
2019-01-14T05:40:11.804Z,28.9
2019-01-14T05:41:23.994Z,28.9
2019-01-14T05:42:36.194Z,28.8
2019-01-14T05:43:48.386Z,28.9
2019-01-14T05:45:00.574Z,28.8
2019-01-14T05:46:12.077Z,28.7
2019-01-14T05:47:24.970Z,28.8
2019-01-14T05:48:37.153Z,28.8
2019-01-14T05:49:49.034Z,28.8
2019-01-14T05:51:01.546Z,28.7
2019-01-14T05:52:13.740Z,29.1
2019-01-14T05:53:25.000Z,28.8
2019-01-14T05:54:38.129Z,29
2019-01-14T05:55:50.321Z,28.9
2019-01-14T05:57:02.525Z,28.5
2019-01-14T05:58:14.703Z,28.8
2019-01-14T05:59:26.898Z,28.5
2019-01-14T06:00:39.009Z,28.6
2019-01-14T06:01:51.287Z,28.5
2019-01-14T06:03:03.478Z,28.4
2019-01-14T06:04:15.678Z,28.6
2019-01-14T06:05:27.870Z,28.2
2019-01-14T06:06:40.062Z,28.5
2019-01-14T06:07:52.250Z,28.5
2019-01-14T06:09:04.450Z,28.6
2019-01-14T06:10:16.651Z,28.7
2019-01-14T06:11:28.834Z,28.5
2019-01-14T06:12:41.031Z,28.5
2019-01-14T06:13:53.235Z,28.7
2019-01-14T06:15:05.412Z,29
2019-01-14T06:16:17.609Z,28.6
2019-01-14T06:17:29.806Z,28.5
2019-01-14T06:18:41.000Z,28.7
2019-01-14T06:19:54.188Z,28.6
2019-01-14T06:21:06.383Z,28.5
2019-01-14T06:22:18.057Z,28.7
2019-01-14T06:23:30.773Z,28.8
2019-01-14T06:24:42.097Z,28.7
2019-01-14T06:25:55.164Z,28.6
2019-01-14T06:27:07.349Z,28.4
2019-01-14T06:28:19.549Z,28.6
2019-01-14T06:29:31.744Z,28.5
2019-01-14T06:30:43.928Z,28.2
2019-01-14T06:31:56.134Z,28.5
2019-01-14T06:33:08.314Z,28.5
2019-01-14T06:34:20.518Z,28.6
2019-01-14T06:35:32.071Z,28.5
2019-01-14T06:36:44.906Z,28.7
2019-01-14T06:37:57.101Z,28.4
2019-01-14T06:39:09.028Z,28.5
2019-01-14T06:40:21.479Z,28.6
2019-01-14T06:41:33.670Z,28.5
2019-01-14T06:42:45.872Z,28.7
2019-01-14T06:43:58.006Z,28.7
2019-01-14T06:45:10.256Z,28.7
2019-01-14T06:46:22.449Z,28.5
2019-01-14T06:47:34.640Z,28.5
2019-01-14T06:48:46.837Z,28.4
2019-01-14T06:49:59.033Z,28.5
2019-01-14T06:51:11.219Z,28.4
2019-01-14T06:52:23.417Z,28.6
2019-01-14T06:53:35.612Z,28.9
2019-01-14T06:54:47.080Z,28.3
2019-01-14T06:56:00.000Z,28.2
2019-01-14T06:57:12.191Z,28.6
2019-01-14T06:58:24.380Z,29
2019-01-14T06:59:36.580Z,29.2
2019-01-14T07:00:48.768Z,29.2
2019-01-14T07:02:00.963Z,29.3
2019-01-14T07:03:13.158Z,29.3
2019-01-14T07:04:25.035Z,29.4
2019-01-14T07:05:37.553Z,29.3
2019-01-14T07:06:49.742Z,29.1
2019-01-14T07:08:01.939Z,29
2019-01-14T07:09:14.131Z,29.1
2019-01-14T07:10:26.317Z,29.2
2019-01-14T07:11:38.534Z,29.1
2019-01-14T07:12:50.071Z,29.2
2019-01-14T07:14:02.090Z,29.4
2019-01-14T07:15:15.089Z,29.3
2019-01-14T07:16:27.287Z,29.4
2019-01-14T07:17:39.479Z,29.3
2019-01-14T07:20:03.865Z,29.6
2019-01-14T07:22:28.260Z,29.8
2019-01-14T07:23:40.448Z,29.7
2019-01-14T07:24:52.654Z,29.6
2019-01-14T07:26:04.000Z,29.6
2019-01-14T07:27:17.027Z,29.7
2019-01-14T07:28:29.219Z,29.5
2019-01-14T07:29:41.429Z,29.3
2019-01-14T07:30:53.622Z,29.3
2019-01-14T07:32:05.822Z,29.2
2019-01-14T07:33:17.997Z,29.2
2019-01-14T07:34:30.189Z,29
2019-01-14T07:35:42.383Z,28.9
2019-01-14T07:36:54.582Z,28.7
2019-01-14T07:38:06.768Z,28.7
2019-01-14T07:39:18.973Z,28.7
2019-01-14T07:40:31.156Z,28.7
2019-01-14T07:41:43.350Z,28
2019-01-14T07:42:55.567Z,28
2019-01-14T07:44:07.074Z,28.1
2019-01-14T07:45:19.932Z,28.1
2019-01-14T07:46:32.013Z,28.2
2019-01-14T07:47:44.327Z,27.7
2019-01-14T07:48:56.511Z,27.8
2019-01-14T07:50:08.712Z,28.3
2019-01-14T07:51:20.902Z,28.3
2019-01-14T07:52:33.109Z,28.2
2019-01-14T07:53:45.290Z,28.3
2019-01-14T07:54:57.478Z,28.2
2019-01-14T07:56:09.676Z,28.4
2019-01-14T07:57:21.873Z,28.2
2019-01-14T07:58:34.067Z,28.2
2019-01-14T07:59:46.259Z,28.2
2019-01-14T08:00:58.448Z,28.5
2019-01-14T08:02:10.643Z,28.4
2019-01-14T08:03:22.083Z,28.1
2019-01-14T08:04:35.035Z,28.2
2019-01-14T08:05:47.228Z,27.9
2019-01-14T08:06:59.042Z,27.6
2019-01-14T08:09:23.816Z,27.4
2019-01-14T08:10:36.005Z,27.3
2019-01-14T08:11:48.189Z,27.2
2019-01-14T08:13:00.003Z,27.2
2019-01-14T08:14:12.584Z,27.3
2019-01-14T08:15:24.775Z,27.5
2019-01-14T08:16:36.969Z,27.3
2019-01-14T08:17:49.158Z,27.5
2019-01-14T08:19:01.035Z,27.4
2019-01-14T08:20:13.543Z,27.1
2019-01-14T08:21:25.074Z,27.3
2019-01-14T08:22:37.937Z,27.1
2019-01-14T08:23:50.132Z,27.2
2019-01-14T08:25:02.324Z,27.2
2019-01-14T08:26:14.519Z,27.2
2019-01-14T08:27:26.711Z,27.1
2019-01-14T08:28:38.000Z,27.4
2019-01-14T08:29:51.099Z,27.5
2019-01-14T08:31:03.299Z,27.2
2019-01-14T08:32:15.484Z,27.2
2019-01-14T08:33:27.680Z,27.3
2019-01-14T08:34:39.876Z,27.1
2019-01-14T08:35:52.072Z,27.2
2019-01-14T08:37:04.274Z,27
2019-01-14T08:38:16.512Z,27
2019-01-14T08:39:28.647Z,27
2019-01-14T08:40:40.843Z,27
2019-01-14T08:41:53.031Z,26.8
2019-01-14T08:43:05.235Z,27.2
2019-01-14T08:44:17.461Z,27.1
2019-01-14T08:45:29.617Z,27
2019-01-14T08:46:41.813Z,27.1
2019-01-14T08:47:54.000Z,27
2019-01-14T08:49:06.367Z,26.9
2019-01-14T08:50:18.561Z,27.1
2019-01-14T08:51:30.754Z,27.1
2019-01-14T08:52:42.000Z,26.9
2019-01-14T08:53:55.143Z,27
2019-01-14T08:55:07.334Z,26.8
2019-01-14T08:56:19.541Z,26.6
2019-01-14T08:57:31.727Z,26.5
2019-01-14T08:58:43.915Z,26.5
2019-01-14T08:59:56.109Z,26.3
2019-01-14T09:01:08.302Z,26.4
2019-01-14T09:02:20.496Z,26.5
2019-01-14T09:03:32.687Z,26.6
2019-01-14T09:04:44.884Z,26.6
2019-01-14T09:05:57.073Z,26.7
2019-01-14T09:07:09.026Z,26.6
2019-01-14T09:08:21.459Z,26.4
2019-01-14T09:09:33.659Z,26.3
2019-01-14T09:10:45.850Z,26.2
2019-01-14T09:11:58.049Z,26.4
2019-01-14T09:13:10.237Z,26.1
2019-01-14T09:14:22.000Z,26.2
2019-01-14T09:15:34.629Z,26.3
2019-01-14T09:16:46.818Z,26.2
2019-01-14T09:17:59.010Z,26.3
2019-01-14T09:19:11.000Z,26.1
2019-01-14T09:20:23.398Z,26.5
2019-01-14T09:21:35.588Z,26.3
2019-01-14T09:22:47.079Z,26.4
2019-01-14T09:23:59.979Z,25.9
2019-01-14T09:25:12.171Z,26
2019-01-14T09:26:24.367Z,26
2019-01-14T09:27:36.559Z,26.1
2019-01-14T09:28:48.761Z,26.1
2019-01-14T09:31:13.145Z,26.7
2019-01-14T09:32:25.332Z,26.6
2019-01-14T09:33:37.053Z,27.3
2019-01-14T09:34:49.726Z,27.1
2019-01-14T09:36:01.922Z,26.8
2019-01-14T09:37:14.120Z,27
2019-01-14T09:38:26.302Z,27.1
2019-01-14T09:39:38.493Z,26.8
2019-01-14T09:40:50.069Z,27.1
2019-01-14T09:42:02.887Z,27.1
2019-01-14T09:43:15.076Z,27.1
2019-01-14T09:44:27.271Z,27.3
2019-01-14T09:45:39.577Z,27.3
2019-01-14T09:46:51.007Z,27
2019-01-14T09:48:03.967Z,27.1
2019-01-14T09:49:16.159Z,27.3
2019-01-14T09:50:28.347Z,27.2
2019-01-14T09:51:40.054Z,27.1
2019-01-14T09:54:04.930Z,26.8
2019-01-14T09:55:17.138Z,26.9
2019-01-14T09:56:29.319Z,27.1
2019-01-14T09:57:41.000Z,26.7
2019-01-14T09:58:53.705Z,26.6
2019-01-14T10:00:05.090Z,26.2
2019-01-14T10:01:18.091Z,25.9
2019-01-14T10:02:30.290Z,25.8
2019-01-14T10:03:42.518Z,25.9
2019-01-14T10:04:54.683Z,26.4
2019-01-14T10:06:06.870Z,26.3
2019-01-14T10:07:19.063Z,26.1
2019-01-14T10:08:31.258Z,25.9
2019-01-14T10:09:43.449Z,25.6
2019-01-14T10:10:55.644Z,25.9
2019-01-14T10:12:07.837Z,25.9
2019-01-14T10:13:20.029Z,25.7
2019-01-14T10:15:44.422Z,25.8
2019-01-14T10:16:56.615Z,25.5
2019-01-14T10:18:08.804Z,25.5
2019-01-14T10:19:20.996Z,25.7
2019-01-14T10:20:33.198Z,25.6
2019-01-14T10:22:57.583Z,25.7
2019-01-14T10:24:09.770Z,25.7
2019-01-14T10:25:21.096Z,25.6
2019-01-14T10:26:34.161Z,25.5
2019-01-14T10:27:46.358Z,25.9
2019-01-14T10:28:58.054Z,25.4
2019-01-14T10:30:10.748Z,25.6
2019-01-14T10:31:22.940Z,25.6
2019-01-14T10:32:35.130Z,25.6
2019-01-14T10:33:47.322Z,25.5
2019-01-14T10:34:59.051Z,25.6
2019-01-14T10:36:11.708Z,25.8
2019-01-14T10:37:23.901Z,25.6
2019-01-14T10:38:36.090Z,26.1
2019-01-14T10:39:48.298Z,26.1
2019-01-14T10:41:00.487Z,26.2
2019-01-14T10:42:12.681Z,26.2
2019-01-14T10:43:24.941Z,26.5
2019-01-14T10:44:37.067Z,26.3
2019-01-14T10:45:49.026Z,26.4
2019-01-14T10:47:01.455Z,26.2
2019-01-14T10:48:13.645Z,26
2019-01-14T10:49:25.837Z,26.1
2019-01-14T10:50:38.028Z,26.9
2019-01-14T10:51:50.226Z,26.9
2019-01-14T10:53:02.042Z,26.6
2019-01-14T10:54:14.060Z,26.4
2019-01-14T10:55:26.806Z,26.4
2019-01-14T10:56:38.996Z,26.7
2019-01-14T10:57:51.193Z,27
2019-01-14T10:59:03.390Z,27
2019-01-14T11:00:15.579Z,26.9
2019-01-14T11:01:27.078Z,26.7
2019-01-14T11:02:39.975Z,26.9
2019-01-14T11:03:52.166Z,27
2019-01-14T11:05:04.355Z,26.8
2019-01-14T11:06:16.553Z,26.9
2019-01-14T11:07:28.740Z,26.5
2019-01-14T11:08:40.939Z,26.5
2019-01-14T11:09:53.000Z,26.6
2019-01-14T11:11:05.324Z,26.6
2019-01-14T11:12:17.527Z,26.7
2019-01-14T11:13:29.710Z,26.8
2019-01-14T11:15:54.100Z,26.9
2019-01-14T11:17:06.292Z,26.8
2019-01-14T11:18:18.483Z,26.5
2019-01-14T11:19:30.680Z,26.1
2019-01-14T11:20:42.870Z,25.8
2019-01-14T11:21:55.066Z,25.6
2019-01-14T11:23:07.262Z,25.6
2019-01-14T11:24:19.456Z,25.6
2019-01-14T11:25:31.645Z,25.6
2019-01-14T11:26:43.847Z,25.6
2019-01-14T11:27:56.031Z,26.1
2019-01-14T11:29:08.223Z,25.9
2019-01-14T11:30:20.418Z,25.9
2019-01-14T11:31:32.614Z,26.1
2019-01-14T11:32:44.805Z,26
2019-01-14T11:33:57.005Z,25.9
2019-01-14T11:35:09.196Z,25.8
2019-01-14T11:36:21.387Z,25.7
2019-01-14T11:37:33.581Z,25.7
2019-01-14T11:38:45.000Z,25.7
2019-01-14T11:39:57.978Z,25.6
2019-01-14T11:41:10.173Z,25.5
2019-01-14T11:42:22.365Z,25.2
2019-01-14T11:43:34.581Z,25.5
2019-01-14T11:44:46.770Z,25.2
2019-01-14T11:45:58.948Z,24.7
2019-01-14T11:47:11.143Z,24.8
2019-01-14T11:48:23.343Z,24.8
2019-01-14T11:49:35.526Z,24.8
2019-01-14T11:50:47.724Z,24.6
2019-01-14T11:51:59.918Z,24.8
2019-01-14T11:53:12.115Z,24.7
2019-01-14T11:54:24.307Z,24.2
2019-01-14T11:55:36.511Z,24.3
2019-01-14T11:58:00.912Z,23.9
2019-01-14T11:59:13.092Z,24.2
2019-01-14T12:00:25.284Z,24.3
2019-01-14T12:01:37.485Z,24.2
2019-01-14T12:02:49.672Z,24.3
2019-01-14T12:04:01.869Z,24.2
2019-01-14T12:05:14.073Z,23.9
2019-01-14T12:06:26.264Z,24.3
2019-01-14T12:07:38.458Z,24.2
2019-01-14T12:08:50.653Z,24
2019-01-14T12:10:02.851Z,24
2019-01-14T12:11:15.036Z,24.1
2019-01-14T12:12:27.245Z,24.4
2019-01-14T12:13:39.430Z,24.9
2019-01-14T12:14:51.633Z,24.8
2019-01-14T12:16:03.826Z,24.4
2019-01-14T12:18:28.000Z,24
2019-01-14T12:19:40.040Z,24.1
2019-01-14T12:20:52.610Z,24.3
2019-01-14T12:22:04.795Z,24.7
2019-01-14T12:23:16.990Z,25.1
2019-01-14T12:24:29.183Z,25.5
2019-01-14T12:25:41.385Z,25.4
2019-01-14T12:26:53.586Z,25.5
2019-01-14T12:28:05.000Z,25.4
2019-01-14T12:29:17.969Z,25.1
2019-01-14T12:30:30.000Z,25.1
2019-01-14T12:31:42.036Z,25.3
2019-01-14T12:32:54.559Z,25.3
2019-01-14T12:34:06.751Z,25.3
2019-01-14T12:35:18.948Z,25.4
2019-01-14T12:36:31.000Z,25.5
2019-01-14T12:37:43.339Z,25.4
2019-01-14T12:38:55.531Z,25.5
2019-01-14T12:40:07.000Z,25.6
2019-01-14T12:41:19.925Z,25.8
2019-01-14T12:42:32.117Z,25.7
2019-01-14T12:43:44.335Z,25.8
2019-01-14T12:44:56.518Z,25.8
2019-01-14T12:46:08.701Z,25.8
2019-01-14T12:47:20.896Z,25.9
2019-01-14T12:48:33.087Z,25.9
2019-01-14T12:49:45.288Z,26
2019-01-14T12:50:57.048Z,26
2019-01-14T12:52:09.672Z,26.1
2019-01-14T12:53:21.867Z,26.1
2019-01-14T12:54:34.000Z,26.2
2019-01-14T12:55:46.271Z,26.1
2019-01-14T12:56:58.463Z,26.2
2019-01-14T12:58:10.000Z,26.3
2019-01-14T12:59:22.852Z,26.3
2019-01-14T13:00:35.044Z,26.4
2019-01-14T13:01:47.243Z,26.5
2019-01-14T13:02:59.436Z,26.5
2019-01-14T13:04:11.000Z,26.6
2019-01-14T13:05:23.825Z,26.7
2019-01-14T13:06:36.022Z,26.6
2019-01-14T13:07:48.218Z,26.8
2019-01-14T13:09:00.408Z,26.8
2019-01-14T13:10:12.608Z,26.8
2019-01-14T13:11:24.802Z,26.9
2019-01-14T13:12:36.000Z,27
2019-01-14T13:13:49.194Z,27
2019-01-14T13:15:01.389Z,27
2019-01-14T13:16:13.000Z,27.2
2019-01-14T13:17:25.773Z,27.2
2019-01-14T13:18:37.975Z,27.2
2019-01-14T13:19:50.000Z,27.2
2019-01-14T13:21:02.361Z,27.3
2019-01-14T13:22:14.558Z,27.4
2019-01-14T13:23:26.751Z,27.5
2019-01-14T13:24:38.946Z,27.5
2019-01-14T13:25:51.143Z,27.5
2019-01-14T13:27:03.000Z,27.6
2019-01-14T13:28:15.533Z,27.7
2019-01-14T13:29:27.729Z,27.8
2019-01-14T13:30:39.929Z,27.7
2019-01-14T13:31:52.129Z,27.8
2019-01-14T13:33:04.319Z,27.9
2019-01-14T13:34:16.051Z,27.9
2019-01-14T13:35:28.733Z,28
2019-01-14T13:36:40.898Z,27.9
2019-01-14T13:37:53.089Z,28.1
2019-01-14T13:39:05.291Z,28.1
2019-01-14T13:40:17.480Z,28.2
2019-01-14T13:41:29.678Z,28.1
2019-01-14T13:42:41.000Z,28.2
2019-01-14T13:43:54.074Z,28.2
2019-01-14T13:46:18.465Z,28.3
2019-01-14T13:47:30.663Z,28.3
2019-01-14T13:48:42.858Z,28.4
2019-01-14T13:49:55.044Z,28.5
2019-01-14T13:51:07.251Z,28.4
2019-01-14T13:52:19.433Z,28.6
2019-01-14T13:53:31.636Z,28.6
2019-01-14T13:54:43.826Z,28.6
2019-01-14T13:55:56.023Z,28.6
2019-01-14T13:57:08.220Z,28.7
2019-01-14T13:59:32.610Z,28.7
2019-01-14T14:00:44.000Z,28.8
2019-01-14T14:01:56.099Z,28.9
2019-01-14T14:03:09.198Z,28.9
2019-01-14T14:04:21.386Z,28.9
2019-01-14T14:05:33.585Z,29
2019-01-14T14:06:45.779Z,29
2019-01-14T14:07:57.976Z,29.1
2019-01-14T14:09:10.020Z,29.1
2019-01-14T14:10:22.375Z,29.2
2019-01-14T14:11:34.570Z,29.2
2019-01-14T14:12:46.761Z,29.2
2019-01-14T14:13:58.952Z,29.3
2019-01-14T14:15:11.161Z,29.4
2019-01-14T14:16:23.000Z,29.6
2019-01-14T14:17:35.544Z,29.5
2019-01-14T14:18:47.000Z,29.5
2019-01-14T14:19:59.937Z,29.6
2019-01-14T14:21:12.121Z,29.7
2019-01-14T14:22:24.318Z,29.8
2019-01-14T14:23:36.511Z,29.9
2019-01-14T14:24:47.000Z,30
2019-01-14T14:26:00.906Z,30
2019-01-14T14:27:13.098Z,30.1
2019-01-14T14:28:25.303Z,30.3
2019-01-14T14:29:37.488Z,30.3
2019-01-14T14:30:49.687Z,30.4
2019-01-14T14:32:01.896Z,30.5
2019-01-14T14:33:14.084Z,30.5
2019-01-14T14:34:26.281Z,30.5
2019-01-14T14:35:38.467Z,30.6
2019-01-14T14:36:50.663Z,30.8
2019-01-14T14:38:02.868Z,30.7
2019-01-14T14:39:15.052Z,30.8
2019-01-14T14:40:27.255Z,30.9
2019-01-14T14:41:39.444Z,30.8
2019-01-14T14:42:51.647Z,30.9
2019-01-14T14:44:03.846Z,30.9
2019-01-14T14:45:16.033Z,31
2019-01-14T14:46:28.000Z,31
2019-01-14T14:47:40.433Z,31.2
2019-01-14T14:48:52.618Z,31.1
2019-01-14T14:50:04.814Z,31.1
2019-01-14T14:51:17.000Z,31.1
2019-01-14T14:52:29.209Z,31.2
2019-01-14T14:53:41.400Z,31.2
2019-01-14T14:54:53.594Z,31.2
2019-01-14T14:56:05.795Z,31.2
2019-01-14T14:57:17.999Z,31.2
2019-01-14T14:58:30.224Z,31.3
2019-01-14T14:59:42.384Z,31.4
2019-01-14T15:00:54.582Z,31.4
2019-01-14T15:02:06.770Z,31.4
2019-01-14T15:03:18.968Z,31.6
2019-01-14T15:04:31.000Z,31.6
2019-01-14T15:05:43.356Z,31.7
2019-01-14T15:06:55.554Z,31.7
2019-01-14T15:08:07.753Z,31.7
2019-01-14T15:10:32.133Z,31.8
2019-01-14T15:11:44.337Z,31.8
2019-01-14T15:12:56.000Z,31.8
2019-01-14T15:14:08.072Z,31.8
2019-01-14T15:15:20.000Z,31.8
2019-01-14T15:16:33.011Z,31.9
2019-01-14T15:17:45.030Z,31.9
2019-01-14T15:18:57.000Z,31.9
2019-01-14T15:20:09.707Z,31.9
2019-01-14T15:21:21.898Z,31.9
2019-01-14T15:22:34.086Z,31.9
2019-01-14T15:23:46.304Z,31.9
2019-01-14T15:24:58.587Z,32
2019-01-14T15:26:10.677Z,31.9
2019-01-14T15:27:22.874Z,31.9
2019-01-14T15:28:35.000Z,32
2019-01-14T15:29:47.272Z,31.9
2019-01-14T15:30:59.467Z,32
2019-01-14T15:32:11.655Z,32.1
2019-01-14T15:33:23.085Z,32
2019-01-14T15:34:36.045Z,32
2019-01-14T15:35:48.242Z,32
2019-01-14T15:37:00.000Z,32
2019-01-14T15:38:12.630Z,32.1
2019-01-14T15:39:24.831Z,32
2019-01-14T15:40:36.000Z,32.1
2019-01-14T15:41:49.221Z,32
2019-01-14T15:43:01.000Z,32
2019-01-14T15:44:13.000Z,32.1
2019-01-14T15:45:25.803Z,32
2019-01-14T15:46:37.998Z,32.1
2019-01-14T15:47:50.205Z,32.1
2019-01-14T15:49:02.391Z,32.1
2019-01-14T15:50:14.632Z,32.1
2019-01-14T15:51:26.780Z,32.1
2019-01-14T15:52:38.972Z,32.1
2019-01-14T15:53:51.178Z,32.1
2019-01-14T15:55:03.370Z,32.2
2019-01-14T15:56:15.563Z,32.2
2019-01-14T15:58:39.955Z,32.1
2019-01-14T15:59:52.148Z,32.2
2019-01-14T16:01:04.342Z,32.2
2019-01-14T16:02:16.542Z,32.2
2019-01-14T16:03:28.733Z,32.2
2019-01-14T16:04:40.929Z,32.2
2019-01-14T16:05:53.122Z,32.3
2019-01-14T16:07:05.328Z,32.3
2019-01-14T16:08:17.523Z,32.3
2019-01-14T16:09:29.710Z,32.3
2019-01-14T16:10:41.905Z,32.3
2019-01-14T16:11:54.104Z,32.3
2019-01-14T16:13:06.302Z,32.3
2019-01-14T16:14:18.049Z,32.4
2019-01-14T16:15:30.696Z,32.4
2019-01-14T16:16:42.088Z,32.3
2019-01-14T16:17:55.084Z,32.4
2019-01-14T16:19:07.278Z,32.4
2019-01-14T16:20:19.476Z,32.4
2019-01-14T16:21:31.676Z,32.4
2019-01-14T16:22:43.878Z,32.4
2019-01-14T16:23:56.066Z,32.4
2019-01-14T16:25:08.265Z,32.5
2019-01-14T16:26:20.456Z,32.4
2019-01-14T16:27:32.650Z,32.4
2019-01-14T16:28:44.852Z,32.5
2019-01-14T16:29:57.044Z,32.5
2019-01-14T16:31:09.235Z,32.5
2019-01-14T16:32:21.430Z,32.5
2019-01-14T16:33:33.625Z,32.5
2019-01-14T16:34:45.000Z,32.5
2019-01-14T16:35:58.019Z,32.5
2019-01-14T16:37:10.216Z,32.5
2019-01-14T16:38:22.417Z,32.5